createdAt,value
2022-08-17T00:00:34.312Z,99844.19
2022-08-17T00:03:09.993Z,99842.44
2022-08-17T00:05:41.507Z,99849.09
2022-08-17T00:08:09.543Z,99853.00
2022-08-17T00:10:39.483Z,99851.63
2022-08-17T00:13:09.520Z,99847.72
2022-08-17T00:15:37.918Z,99853.75
2022-08-17T00:19:06.236Z,99854.06
2022-08-17T00:20:54.620Z,99860.91
2022-08-17T00:23:22.449Z,99851.03
2022-08-17T00:25:52.514Z,99849.72
2022-08-17T00:28:21.606Z,99845.34
2022-08-17T00:30:52.914Z,99839.84
2022-08-17T00:33:24.151Z,99845.28
2022-08-17T00:35:52.189Z,99842.81
2022-08-17T00:38:20.734Z,99850.78
2022-08-17T00:40:52.694Z,99849.69
2022-08-17T00:43:30.002Z,99851.50
2022-08-17T00:45:58.975Z,99842.00
2022-08-17T00:48:30.182Z,99840.41
2022-08-17T00:51:10.476Z,99841.00
2022-08-17T00:53:42.207Z,99838.13
2022-08-17T00:56:20.957Z,99843.06
2022-08-17T00:58:50.436Z,99840.06
2022-08-17T01:01:21.236Z,99841.47
2022-08-17T01:03:51.402Z,99843.34
2022-08-17T01:06:19.363Z,99838.13
2022-08-17T01:08:47.650Z,99837.91
2022-08-17T01:11:17.177Z,99825.81
2022-08-17T01:13:45.335Z,99834.63
2022-08-17T01:16:19.063Z,99839.84
2022-08-17T01:18:49.959Z,99833.03
2022-08-17T01:21:25.744Z,99835.00
2022-08-17T01:23:54.926Z,99847.41
2022-08-17T01:26:23.855Z,99843.25
2022-08-17T01:28:55.416Z,99846.84
2022-08-17T01:31:25.178Z,99846.00
2022-08-17T01:33:53.239Z,99843.22
2022-08-17T01:36:21.342Z,99854.75
2022-08-17T01:38:49.157Z,99855.91
2022-08-17T01:41:20.386Z,99861.97
2022-08-17T01:43:52.317Z,99856.47
2022-08-17T01:46:23.658Z,99852.66
2022-08-17T01:48:51.643Z,99857.03
2022-08-17T01:51:20.484Z,99865.00
2022-08-17T01:53:51.444Z,99858.94
2022-08-17T01:56:24.303Z,99853.69
2022-08-17T01:58:53.286Z,99847.69
2022-08-17T02:01:24.582Z,99852.94
2022-08-17T02:03:59.253Z,99840.03
2022-08-17T02:06:30.496Z,99837.31
2022-08-17T02:09:02.213Z,99840.41
2022-08-17T02:11:34.194Z,99849.22
2022-08-17T02:14:04.061Z,99841.28
2022-08-17T02:16:36.711Z,99835.56
2022-08-17T02:19:07.508Z,99839.94
2022-08-17T02:21:36.452Z,99834.72
2022-08-17T02:24:05.843Z,99830.09
2022-08-17T02:26:35.094Z,99836.66
2022-08-17T02:29:03.976Z,99829.81
2022-08-17T02:31:32.347Z,99833.72
2022-08-17T02:34:04.394Z,99838.09
2022-08-17T02:36:33.986Z,99830.66
2022-08-17T02:39:02.506Z,99838.34
2022-08-17T02:41:30.402Z,99841.09
2022-08-17T02:43:59.605Z,99832.84
2022-08-17T02:46:28.277Z,99830.94
2022-08-17T02:48:56.264Z,99835.91
2022-08-17T02:51:24.055Z,99849.38
2022-08-17T02:53:51.902Z,99842.22
2022-08-17T02:56:19.831Z,99833.44
2022-08-17T02:58:47.697Z,99831.25
2022-08-17T03:01:17.064Z,99829.59
2022-08-17T03:03:45.090Z,99829.88
2022-08-17T03:06:12.887Z,99843.06
2022-08-17T03:08:40.725Z,99841.41
2022-08-17T03:11:08.684Z,99845.25
2022-08-17T03:13:36.498Z,99849.66
2022-08-17T03:16:04.782Z,99852.16
2022-08-17T03:18:33.912Z,99845.00
2022-08-17T03:21:04.303Z,99851.56
2022-08-17T03:23:33.668Z,99847.19
2022-08-17T03:26:01.875Z,99856.78
2022-08-17T03:28:30.079Z,99851.31
2022-08-17T03:30:57.837Z,99856.78
2022-08-17T03:33:25.784Z,99862.00
2022-08-17T03:35:54.932Z,99856.25
2022-08-17T03:38:23.256Z,99856.25
2022-08-17T03:40:57.713Z,99853.50
2022-08-17T03:43:31.644Z,99829.81
2022-08-17T03:46:28.726Z,99849.47
2022-08-17T03:49:24.225Z,99850.63
2022-08-17T03:52:11.205Z,99844.63
2022-08-17T03:54:56.984Z,99846.22
2022-08-17T03:57:25.699Z,99845.72
2022-08-17T03:59:53.876Z,99846.81
2022-08-17T04:02:25.263Z,99843.44
2022-08-17T04:04:53.832Z,99847.59
2022-08-17T04:07:25.135Z,99838.56
2022-08-17T04:09:53.257Z,99844.34
2022-08-17T04:12:23.621Z,99847.59
2022-08-17T04:14:54.754Z,99837.97
2022-08-17T04:17:25.305Z,99836.38
2022-08-17T04:19:53.877Z,99824.88
2022-08-17T04:22:31.906Z,99830.34
2022-08-17T04:25:06.418Z,99831.44
2022-08-17T04:27:34.485Z,99839.63
2022-08-17T04:30:02.751Z,99844.56
2022-08-17T04:33:00.766Z,99843.38
2022-08-17T04:35:21.367Z,99841.13
2022-08-17T04:37:51.515Z,99837.88
2022-08-17T04:40:38.632Z,99845.56
2022-08-17T04:43:09.325Z,99843.66
2022-08-17T04:45:40.855Z,99842.22
2022-08-17T04:48:34.725Z,99846.84
2022-08-17T04:51:09.137Z,99848.97
2022-08-17T04:53:38.963Z,99852.56
2022-08-17T04:56:07.287Z,99850.38
2022-08-17T04:58:35.151Z,99865.41
2022-08-17T05:01:03.074Z,99866.53
2022-08-17T05:03:31.259Z,99862.69
2022-08-17T05:05:59.060Z,99865.69
2022-08-17T05:08:27.017Z,99858.63
2022-08-17T05:10:56.272Z,99860.81
2022-08-17T05:13:26.048Z,99866.38
2022-08-17T05:15:57.151Z,99873.56
2022-08-17T05:18:25.452Z,99868.34
2022-08-17T05:20:54.150Z,99869.47
2022-08-17T05:23:24.324Z,99872.72
2022-08-17T05:25:55.203Z,99870.53
2022-08-17T05:28:28.072Z,99879.28
2022-08-17T05:31:01.191Z,99860.59
2022-08-17T05:33:31.555Z,99875.78
2022-08-17T05:36:00.683Z,99881.91
2022-08-17T05:38:30.376Z,99884.81
2022-08-17T05:40:59.077Z,99880.88
2022-08-17T05:43:31.062Z,99878.06
2022-08-17T05:46:03.927Z,99882.41
2022-08-17T05:48:40.094Z,99875.38
2022-08-17T05:51:38.814Z,99878.09
2022-08-17T05:54:16.560Z,99883.16
2022-08-17T05:57:07.308Z,99877.31
2022-08-17T05:59:49.256Z,99881.34
2022-08-17T06:02:25.433Z,99886.03
2022-08-17T06:05:11.536Z,99882.59
2022-08-17T06:07:49.489Z,99878.38
2022-08-17T06:10:29.034Z,99866.19
2022-08-17T06:13:10.791Z,99865.81
2022-08-17T06:15:54.104Z,99866.31
2022-08-17T06:18:25.405Z,99867.38
2022-08-17T06:20:57.392Z,99865.00
2022-08-17T06:23:31.371Z,99859.06
2022-08-17T06:26:05.223Z,99860.31
2022-08-17T06:28:39.339Z,99864.41
2022-08-17T06:31:16.595Z,99871.09
2022-08-17T06:33:45.575Z,99866.47
2022-08-17T06:36:24.000Z,99864.53
2022-08-17T06:39:04.082Z,99849.66
2022-08-17T06:41:41.763Z,99866.56
2022-08-17T06:44:42.279Z,99864.84
2022-08-17T06:47:11.109Z,99860.34
2022-08-17T06:49:49.546Z,99862.28
2022-08-17T06:52:43.387Z,99874.56
2022-08-17T06:55:19.421Z,99881.47
2022-08-17T06:57:51.027Z,99890.03
2022-08-17T07:00:22.241Z,99900.91
2022-08-17T07:02:57.798Z,99896.38
2022-08-17T07:05:27.756Z,99898.59
2022-08-17T07:08:04.994Z,99902.69
2022-08-17T07:10:38.971Z,99903.16
2022-08-17T07:13:25.408Z,99898.72
2022-08-17T07:15:57.720Z,99897.69
2022-08-17T07:18:33.125Z,99898.41
2022-08-17T07:21:11.927Z,99903.44
2022-08-17T07:24:04.292Z,99903.47
2022-08-17T07:26:32.095Z,99892.84
2022-08-17T07:29:02.267Z,99892.75
2022-08-17T07:31:33.665Z,99888.13
2022-08-17T07:34:08.314Z,99881.34
2022-08-17T07:36:36.146Z,99870.75
2022-08-17T07:39:06.070Z,99870.75
2022-08-17T07:41:58.072Z,99861.03
2022-08-17T07:44:27.613Z,99863.78
2022-08-17T07:47:13.669Z,99873.72
2022-08-17T07:49:46.130Z,99889.53
2022-08-17T07:52:51.186Z,99891.91
2022-08-17T07:55:40.494Z,99910.53
2022-08-17T07:58:09.348Z,99898.34
2022-08-17T08:00:37.252Z,99903.25
2022-08-17T08:03:16.876Z,99897.41
2022-08-17T08:05:56.212Z,99912.59
2022-08-17T08:08:34.017Z,99917.84
2022-08-17T08:11:07.156Z,99911.78
2022-08-17T08:13:40.438Z,99912.72
2022-08-17T08:16:30.173Z,99917.53
2022-08-17T08:19:02.533Z,99918.81
2022-08-17T08:21:43.430Z,99913.06
2022-08-17T08:24:34.741Z,99901.97
2022-08-17T08:27:15.967Z,99892.28
2022-08-17T08:29:53.969Z,99891.75
2022-08-17T08:32:34.526Z,99884.41
2022-08-17T08:35:06.530Z,99897.97
2022-08-17T08:37:47.486Z,99916.75
2022-08-17T08:40:33.425Z,99918.25
2022-08-17T08:43:16.138Z,99933.47
2022-08-17T08:45:56.577Z,99934.78
2022-08-17T08:49:00.980Z,99935.56
2022-08-17T08:51:46.152Z,99932.66
2022-08-17T08:54:28.457Z,99943.84
2022-08-17T09:00:05.132Z,99951.19
2022-08-17T09:03:08.682Z,99953.84
2022-08-17T09:05:52.724Z,99946.69
2022-08-17T09:08:31.817Z,99954.03
2022-08-17T09:11:06.911Z,99952.63
2022-08-17T09:13:44.835Z,99941.19
2022-08-17T09:16:17.332Z,99959.63
2022-08-17T09:19:02.199Z,99942.44
2022-08-17T09:21:47.956Z,99955.88
2022-08-17T09:24:24.809Z,99962.47
2022-08-17T09:26:59.368Z,99962.59
2022-08-17T09:29:35.012Z,99951.97
2022-08-17T09:32:05.786Z,99942.63
2022-08-17T09:34:38.609Z,99932.53
2022-08-17T09:37:20.149Z,99938.59
2022-08-17T09:39:56.076Z,99931.53
2022-08-17T09:42:31.084Z,99938.19
2022-08-17T09:45:10.826Z,99949.44
2022-08-17T09:47:45.485Z,99949.56
2022-08-17T09:50:20.103Z,99956.97
2022-08-17T09:53:08.971Z,99951.25
2022-08-17T09:55:49.554Z,99950.56
2022-08-17T09:58:25.697Z,99939.41
2022-08-17T10:01:04.046Z,99943.63
2022-08-17T10:03:52.718Z,99939.97
2022-08-17T10:06:25.391Z,99934.34
2022-08-17T10:09:06.365Z,99950.63
2022-08-17T10:11:54.580Z,99944.81
2022-08-17T10:14:36.228Z,99939.88
2022-08-17T10:17:11.148Z,99947.34
2022-08-17T10:19:44.277Z,99942.69
2022-08-17T10:22:37.939Z,99948.44
2022-08-17T10:25:37.565Z,99936.81
2022-08-17T10:28:19.972Z,99952.28
2022-08-17T10:31:10.393Z,99948.44
2022-08-17T10:33:55.889Z,99944.00
2022-08-17T10:36:30.021Z,99943.44
2022-08-17T10:39:10.612Z,99947.16
2022-08-17T10:41:42.750Z,99950.13
2022-08-17T10:44:40.358Z,99965.28
2022-08-17T10:47:14.380Z,99967.22
2022-08-17T10:49:47.576Z,99972.16
2022-08-17T10:52:52.123Z,99960.25
2022-08-17T10:55:21.304Z,99956.03
2022-08-17T10:57:51.212Z,99962.44
2022-08-17T11:01:12.584Z,99966.09
2022-08-17T11:03:54.954Z,99967.78
2022-08-17T11:06:32.067Z,99969.88
2022-08-17T11:09:28.527Z,99966.09
2022-08-17T11:12:21.403Z,99975.53
2022-08-17T11:15:00.357Z,99970.03
2022-08-17T11:18:15.885Z,99988.19
2022-08-17T11:21:20.319Z,99981.53
2022-08-17T11:24:15.338Z,99994.19
2022-08-17T11:26:48.791Z,99991.22
2022-08-17T11:29:24.762Z,99992.44
2022-08-17T11:32:02.910Z,99958.94
2022-08-17T11:34:33.019Z,99996.13
2022-08-17T11:37:21.607Z,100006.59
2022-08-17T11:40:12.202Z,99983.63
2022-08-17T11:43:03.318Z,99992.41
2022-08-17T11:45:51.661Z,99991.72
2022-08-17T11:48:50.699Z,99980.50
2022-08-17T11:51:34.551Z,99979.47
2022-08-17T11:54:32.736Z,99985.03
2022-08-17T11:56:55.483Z,99984.91
2022-08-17T12:00:00.255Z,99991.81
2022-08-17T12:02:47.349Z,99985.34
2022-08-17T12:05:30.955Z,99985.34
2022-08-17T12:08:08.429Z,99986.69
2022-08-17T12:10:49.882Z,99990.41
2022-08-17T12:13:19.137Z,99995.88
2022-08-17T12:15:50.349Z,99989.69
2022-08-17T12:18:24.440Z,99983.97
2022-08-17T12:21:26.186Z,99976.03
2022-08-17T12:24:00.505Z,99971.03
2022-08-17T12:26:33.160Z,99977.22
2022-08-17T12:29:03.121Z,99973.41
2022-08-17T12:31:36.769Z,99971.91
2022-08-17T12:34:05.474Z,99975.75
2022-08-17T12:36:34.022Z,99978.97
2022-08-17T12:39:12.805Z,99975.88
2022-08-17T12:41:47.737Z,99966.50
2022-08-17T12:44:20.799Z,99961.88
2022-08-17T12:46:55.524Z,99959.66
2022-08-17T12:49:30.730Z,99967.09
2022-08-17T12:52:05.630Z,99970.69
2022-08-17T12:54:41.225Z,99954.34
2022-08-17T12:57:14.918Z,99951.75
2022-08-17T12:59:46.174Z,99961.34
2022-08-17T13:02:22.843Z,99958.84
2022-08-17T13:04:51.211Z,99944.44
2022-08-17T13:07:30.990Z,99947.78
2022-08-17T13:09:59.110Z,99941.03
2022-08-17T13:12:30.387Z,99921.16
2022-08-17T13:14:58.633Z,99937.13
2022-08-17T13:17:30.029Z,99929.81
2022-08-17T13:19:58.246Z,99930.63
2022-08-17T13:22:28.062Z,99938.00
2022-08-17T13:24:58.589Z,99924.00
2022-08-17T13:27:29.806Z,99924.78
2022-08-17T13:30:00.865Z,99925.31
2022-08-17T13:32:43.997Z,99907.59
2022-08-17T13:35:50.104Z,99910.91
2022-08-17T13:38:40.413Z,99908.72
2022-08-17T13:41:08.806Z,99900.28
2022-08-17T13:43:50.526Z,99905.44
2022-08-17T13:46:21.515Z,99902.31
2022-08-17T13:49:00.109Z,99892.50
2022-08-17T13:51:34.736Z,99888.47
2022-08-17T13:54:07.743Z,99896.69
2022-08-17T13:56:47.690Z,99896.00
2022-08-17T13:59:36.354Z,99886.91
2022-08-17T14:02:18.592Z,99888.94
2022-08-17T14:04:49.388Z,99894.81
2022-08-17T14:07:29.433Z,99891.69
2022-08-17T14:10:01.896Z,99887.53
2022-08-17T14:12:32.982Z,99880.97
2022-08-17T14:15:02.763Z,99870.16
2022-08-17T14:17:35.072Z,99858.91
2022-08-17T14:20:07.732Z,99853.41
2022-08-17T14:22:38.101Z,99850.47
2022-08-17T14:25:10.321Z,99845.34
2022-08-17T14:27:51.736Z,99853.16
2022-08-17T14:30:25.023Z,99838.50
2022-08-17T14:32:53.638Z,99827.81
2022-08-17T14:35:23.735Z,99829.34
2022-08-17T14:37:52.646Z,99826.94
2022-08-17T14:40:24.572Z,99822.91
2022-08-17T14:42:55.017Z,99827.63
2022-08-17T14:45:30.293Z,99818.41
2022-08-17T14:48:02.647Z,99804.31
2022-08-17T14:50:30.497Z,99828.03
2022-08-17T14:53:01.421Z,99829.00
2022-08-17T14:55:29.732Z,99824.09
2022-08-17T14:57:57.589Z,99816.28
2022-08-17T15:00:27.070Z,99821.41
2022-08-17T15:02:56.554Z,99815.66
2022-08-17T15:05:26.820Z,99809.34
2022-08-17T15:07:55.695Z,99809.06
2022-08-17T15:10:25.851Z,99809.84
2022-08-17T15:12:54.411Z,99806.16
2022-08-17T15:15:22.239Z,99817.22
2022-08-17T15:17:52.168Z,99809.63
2022-08-17T15:20:22.017Z,99802.91
2022-08-17T15:22:50.928Z,99803.78
2022-08-17T15:25:19.882Z,99813.19
2022-08-17T15:27:47.817Z,99813.88
2022-08-17T15:30:16.126Z,99800.22
2022-08-17T15:32:51.415Z,99802.25
2022-08-17T15:35:27.288Z,99801.31
2022-08-17T15:37:58.200Z,99810.72
2022-08-17T15:40:26.044Z,99810.88
2022-08-17T15:42:53.947Z,99806.44
2022-08-17T15:45:24.827Z,99814.66
2022-08-17T15:47:53.166Z,99806.91
2022-08-17T15:50:21.010Z,99812.88
2022-08-17T15:52:55.982Z,99814.69
2022-08-17T15:55:24.429Z,99809.72
2022-08-17T15:57:52.994Z,99812.50
2022-08-17T16:00:23.548Z,99803.34
2022-08-17T16:03:44.370Z,99803.84
2022-08-17T16:05:40.994Z,99796.91
2022-08-17T16:08:11.086Z,99798.97
2022-08-17T16:10:39.289Z,99792.97
2022-08-17T16:13:17.532Z,99794.69
2022-08-17T16:15:51.148Z,99794.75
2022-08-17T16:18:30.997Z,99799.56
2022-08-17T16:21:19.762Z,99811.63
2022-08-17T16:23:50.189Z,99799.69
2022-08-17T16:26:19.061Z,99801.34
2022-08-17T16:28:47.366Z,99797.09
2022-08-17T16:31:15.620Z,99790.22
2022-08-17T16:34:15.662Z,99789.22
2022-08-17T16:36:32.497Z,99784.72
2022-08-17T16:39:01.728Z,99779.94
2022-08-17T16:41:44.429Z,99789.03
2022-08-17T16:44:15.336Z,99786.97
2022-08-17T16:46:45.678Z,99792.66
2022-08-17T16:49:35.384Z,99796.00
2022-08-17T16:52:04.247Z,99797.09
2022-08-17T16:54:35.240Z,99790.94
2022-08-17T16:57:04.887Z,99793.66
2022-08-17T16:59:42.162Z,99803.28
2022-08-17T17:02:14.969Z,99797.44
2022-08-17T17:04:51.067Z,99801.66
2022-08-17T17:07:34.727Z,99801.00
2022-08-17T17:10:08.601Z,99804.06
2022-08-17T17:13:01.586Z,99795.63
2022-08-17T17:15:47.196Z,99794.50
2022-08-17T17:18:16.795Z,99798.47
2022-08-17T17:20:53.474Z,99800.22
2022-08-17T17:23:33.191Z,99796.63
2022-08-17T17:26:10.920Z,99787.72
2022-08-17T17:28:49.462Z,99782.81
2022-08-17T17:31:20.533Z,99786.31
2022-08-17T17:33:52.665Z,99775.16
2022-08-17T17:36:27.641Z,99782.81
2022-08-17T17:39:01.325Z,99774.78
2022-08-17T17:41:34.562Z,99776.81
2022-08-17T17:44:07.839Z,99778.47
2022-08-17T17:46:39.421Z,99779.53
2022-08-17T17:49:10.064Z,99782.34
2022-08-17T17:52:07.922Z,99785.50
2022-08-17T17:54:51.088Z,99780.84
2022-08-17T17:57:29.714Z,99786.09
2022-08-17T18:00:04.379Z,99790.53
2022-08-17T18:02:52.131Z,99796.81
2022-08-17T18:05:35.892Z,99788.78
2022-08-17T18:08:13.156Z,99785.28
2022-08-17T18:10:49.137Z,99787.75
2022-08-17T18:13:27.779Z,99794.59
2022-08-17T18:16:00.884Z,99787.38
2022-08-17T18:18:38.520Z,99791.47
2022-08-17T18:21:16.651Z,99796.50
2022-08-17T18:23:50.794Z,99793.34
2022-08-17T18:26:37.513Z,99782.28
2022-08-17T18:29:22.196Z,99792.78
2022-08-17T18:31:52.508Z,99793.53
2022-08-17T18:37:16.090Z,99791.25
2022-08-17T18:39:47.522Z,99799.75
2022-08-17T18:42:26.179Z,99800.91
2022-08-17T18:44:56.512Z,99800.53
2022-08-17T18:47:26.631Z,99811.44
2022-08-17T18:49:57.788Z,99821.94
2022-08-17T18:52:28.779Z,99824.78
2022-08-17T18:55:08.509Z,99815.00
2022-08-17T18:57:40.641Z,99830.75
2022-08-17T19:00:18.193Z,99828.63
2022-08-17T19:02:52.849Z,99838.44
2022-08-17T19:05:32.361Z,99844.31
2022-08-17T19:08:17.196Z,99844.97
2022-08-17T19:10:47.407Z,99856.06
2022-08-17T19:13:23.885Z,99852.00
2022-08-17T19:16:11.394Z,99852.00
2022-08-17T19:18:47.357Z,99850.69
2022-08-17T19:21:21.174Z,99859.16
2022-08-17T19:23:54.585Z,99856.22
2022-08-17T19:26:54.572Z,99859.00
2022-08-17T19:29:19.567Z,99862.09
2022-08-17T19:31:52.762Z,99857.84
2022-08-17T19:34:33.598Z,99857.66
2022-08-17T19:37:08.903Z,99860.88
2022-08-17T19:39:47.991Z,99857.59
2022-08-17T19:42:28.323Z,99867.53
2022-08-17T19:45:04.392Z,99877.13
2022-08-17T19:47:54.792Z,99876.44
2022-08-17T19:50:41.019Z,99880.31
2022-08-17T19:53:21.201Z,99870.78
2022-08-17T19:55:57.322Z,99874.41
2022-08-17T19:58:39.135Z,99869.28
2022-08-17T20:01:13.828Z,99875.56
2022-08-17T20:03:52.077Z,99877.84
2022-08-17T20:06:22.416Z,99866.50
2022-08-17T20:08:58.482Z,99872.50
2022-08-17T20:11:33.876Z,99877.97
2022-08-17T20:14:07.827Z,99873.31
2022-08-17T20:16:35.702Z,99874.97
2022-08-17T20:19:08.980Z,99874.72
2022-08-17T20:21:41.635Z,99872.22
2022-08-17T20:24:20.894Z,99876.38
2022-08-17T20:26:58.121Z,99883.66
2022-08-17T20:29:39.640Z,99873.13
2022-08-17T20:32:19.707Z,99882.25
2022-08-17T20:34:49.466Z,99883.09
2022-08-17T20:37:30.787Z,99878.81
2022-08-17T20:40:31.006Z,99879.44
2022-08-17T20:42:59.839Z,99874.56
2022-08-17T20:46:03.553Z,99871.81
2022-08-17T20:48:39.475Z,99870.91
2022-08-17T20:51:19.005Z,99874.69
2022-08-17T20:54:28.695Z,99859.53
2022-08-17T20:56:58.647Z,99857.03
2022-08-17T20:59:56.204Z,99855.63
2022-08-17T21:02:26.561Z,99859.81
2022-08-17T21:05:21.594Z,99862.28
2022-08-17T21:07:59.571Z,99862.88
2022-08-17T21:10:37.971Z,99855.91
2022-08-17T21:13:30.210Z,99873.44
2022-08-17T21:16:01.818Z,99882.44
2022-08-17T21:18:38.758Z,99881.31
2022-08-17T21:21:22.122Z,99882.22
2022-08-17T21:24:11.998Z,99897.41
2022-08-17T21:26:53.707Z,99895.66
2022-08-17T21:29:30.943Z,99898.22
2022-08-17T21:32:24.154Z,99897.72
2022-08-17T21:35:26.677Z,99899.38
2022-08-17T21:38:02.327Z,99900.50
2022-08-17T21:40:34.758Z,99901.78
2022-08-17T21:43:17.915Z,99895.56
2022-08-17T21:45:56.580Z,99904.50
2022-08-17T21:48:27.088Z,99893.59
2022-08-17T21:51:03.641Z,99903.44
2022-08-17T21:53:39.560Z,99911.84
2022-08-17T21:56:11.063Z,99909.91
2022-08-17T21:58:45.394Z,99921.66
2022-08-17T22:01:25.514Z,99932.81
2022-08-17T22:04:01.342Z,99928.09
2022-08-17T22:06:34.546Z,99926.28
2022-08-17T22:09:13.041Z,99932.13
2022-08-17T22:12:09.029Z,99929.16
2022-08-17T22:14:52.154Z,99925.72
2022-08-17T22:17:24.056Z,99922.94
2022-08-17T22:19:54.998Z,99931.81
2022-08-17T22:22:33.469Z,99932.44
2022-08-17T22:25:02.941Z,99926.09
2022-08-17T22:27:54.330Z,99929.78
2022-08-17T22:30:33.014Z,99933.50
2022-08-17T22:33:02.789Z,99937.28
2022-08-17T22:35:40.437Z,99953.78
2022-08-17T22:38:30.084Z,99950.91
2022-08-17T22:41:31.889Z,99952.44
2022-08-17T22:44:09.837Z,99946.84
2022-08-17T22:46:41.974Z,99957.72
2022-08-17T22:49:09.833Z,99957.31
2022-08-17T22:51:38.199Z,99954.09
2022-08-17T22:54:37.254Z,99952.75
2022-08-17T22:57:24.069Z,99962.84
2022-08-17T22:59:56.067Z,99974.69
2022-08-17T23:02:26.518Z,99963.19
2022-08-17T23:04:59.246Z,99954.34
2022-08-17T23:07:26.993Z,99964.88
2022-08-17T23:09:55.332Z,99967.88
2022-08-17T23:12:27.321Z,99972.72
2022-08-17T23:15:02.222Z,99970.94
2022-08-17T23:17:36.914Z,99980.59
2022-08-17T23:20:08.529Z,99987.94
2022-08-17T23:22:51.973Z,99980.72
2022-08-17T23:25:26.973Z,99968.72
2022-08-17T23:27:54.879Z,99988.72
2022-08-17T23:30:25.359Z,99984.50
2022-08-17T23:32:54.209Z,99988.31
2022-08-17T23:35:39.198Z,99989.28
2022-08-17T23:38:09.875Z,99984.50
2022-08-17T23:40:39.391Z,99996.16
2022-08-17T23:43:17.622Z,99984.81
2022-08-17T23:45:54.909Z,99984.00
2022-08-17T23:48:32.508Z,99981.66
2022-08-17T23:51:04.218Z,99984.84
2022-08-17T23:53:36.646Z,99986.94
2022-08-17T23:56:09.466Z,99991.34
2022-08-17T23:58:39.114Z,99980.16
